Time;durP1;ratioP1;P1;durP2;ratioP2;P2;SDS_P1;SDS_P2;PMS_P1;PMS_P2;Temp;Humidity;BMP_temperature;BMP_pressure;BME280_temperature;BME280_humidity;BME280_pressure;Samples;Min_cycle;Max_cycle;Signal;HPM_P1;HPM_P2
2023/11/08 00:00:25;;;;;;;3.95;1.60;;;10.20;99.90;;;;;;4126032;28;20105;-67
2023/11/08 00:02:25;;;;;;;4.65;1.55;;;10.20;99.90;;;;;;4140560;28;20109;-67
2023/11/08 00:04:26;;;;;;;5.60;1.55;;;10.20;99.90;;;;;;4126804;28;20034;-67
2023/11/08 00:06:26;;;;;;;3.05;1.27;;;10.20;99.90;;;;;;4129127;28;20486;-67
2023/11/08 00:08:27;;;;;;;3.05;1.35;;;10.20;99.90;;;;;;4133392;28;20033;-68
2023/11/08 00:10:28;;;;;;;2.55;1.20;;;10.20;99.90;;;;;;4136463;28;20096;-67
2023/11/08 00:12:28;;;;;;;2.40;1.15;;;10.20;99.90;;;;;;4144329;28;20112;-67
2023/11/08 00:14:29;;;;;;;4.47;1.30;;;10.20;99.90;;;;;;4115071;28;20034;-67
2023/11/08 00:16:31;;;;;;;3.42;1.60;;;10.20;99.90;;;;;;4132201;28;20050;-69
2023/11/08 00:18:32;;;;;;;2.67;1.30;;;10.20;99.90;;;;;;4129607;28;20395;-68
2023/11/08 00:20:32;;;;;;;5.53;1.77;;;10.20;99.90;;;;;;4110559;28;20047;-67
2023/11/08 00:22:33;;;;;;;3.53;1.70;;;10.20;99.90;;;;;;4129808;28;20542;-67
2023/11/08 00:24:34;;;;;;;3.92;1.65;;;10.20;99.90;;;;;;4113502;28;20071;-68
2023/11/08 00:26:35;;;;;;;2.80;1.20;;;10.20;99.90;;;;;;4142650;28;20038;-67
2023/11/08 00:28:35;;;;;;;3.50;1.33;;;10.10;99.90;;;;;;4134080;28;20046;-67
2023/11/08 00:30:36;;;;;;;5.60;1.52;;;10.20;99.90;;;;;;4131699;28;20371;-67
2023/11/08 00:32:36;;;;;;;4.53;1.60;;;10.20;99.90;;;;;;4145983;28;20034;-67
2023/11/08 00:34:37;;;;;;;4.78;1.58;;;10.20;99.90;;;;;;4130496;28;20142;-67
2023/11/08 00:36:38;;;;;;;3.88;1.67;;;10.20;99.90;;;;;;4133457;28;20097;-67
2023/11/08 00:38:39;;;;;;;3.63;1.45;;;10.10;99.90;;;;;;4132318;28;20034;-67
2023/11/08 00:40:39;;;;;;;4.28;1.38;;;10.10;99.90;;;;;;4127944;28;20054;-67
2023/11/08 00:42:40;;;;;;;3.03;1.10;;;10.10;99.90;;;;;;4129808;28;20041;-67
2023/11/08 00:44:41;;;;;;;6.35;1.73;;;10.10;99.90;;;;;;4128853;28;20077;-67
2023/11/08 00:46:41;;;;;;;3.10;1.20;;;10.10;99.90;;;;;;4138107;28;20038;-67
2023/11/08 00:48:42;;;;;;;5.35;1.77;;;10.10;99.90;;;;;;4134007;28;20117;-67
2023/11/08 00:50:42;;;;;;;4.18;1.70;;;10.10;99.90;;;;;;4131425;28;20505;-67
2023/11/08 00:52:43;;;;;;;3.80;1.77;;;10.10;99.90;;;;;;4140540;28;20061;-67
2023/11/08 00:54:44;;;;;;;4.05;1.40;;;10.00;99.90;;;;;;4144660;28;20034;-67
2023/11/08 00:56:45;;;;;;;2.80;1.58;;;10.10;99.90;;;;;;4130018;28;20049;-67
2023/11/08 00:58:45;;;;;;;4.35;1.40;;;10.10;99.90;;;;;;4132650;28;20049;-67
2023/11/08 01:00:46;;;;;;;4.13;1.60;;;10.10;99.90;;;;;;4131224;28;20046;-67
2023/11/08 01:02:47;;;;;;;4.95;1.45;;;10.00;99.90;;;;;;4127714;28;20428;-67
2023/11/08 01:04:48;;;;;;;3.75;1.60;;;10.10;99.90;;;;;;4127494;28;20038;-67
2023/11/08 01:06:48;;;;;;;2.97;1.52;;;10.00;99.90;;;;;;4136949;28;20084;-67
2023/11/08 01:08:49;;;;;;;7.78;1.50;;;10.00;99.90;;;;;;4140131;28;20049;-67
2023/11/08 01:10:51;;;;;;;9.23;2.55;;;10.00;99.90;;;;;;4127788;28;20046;-67
2023/11/08 01:12:53;;;;;;;2.40;1.33;;;10.00;99.90;;;;;;4136071;28;20451;-67
2023/11/08 01:14:54;;;;;;;2.28;1.13;;;10.00;99.90;;;;;;4112329;28;20074;-67
2023/11/08 01:16:54;;;;;;;4.35;1.45;;;10.00;99.90;;;;;;4125666;28;20050;-67
2023/11/08 01:18:55;;;;;;;4.32;1.23;;;10.00;99.90;;;;;;4127924;28;20114;-67
2023/11/08 01:20:55;;;;;;;4.10;1.52;;;10.00;99.90;;;;;;4131399;28;20089;-67
2023/11/08 01:22:58;;;;;;;4.20;1.70;;;10.00;99.90;;;;;;4128930;28;20411;-67
2023/11/08 01:24:58;;;;;;;2.75;1.40;;;10.10;99.90;;;;;;4120139;28;20031;-67
2023/11/08 01:27:00;;;;;;;4.45;1.90;;;10.10;99.90;;;;;;4142789;28;20052;-70
2023/11/08 01:29:01;;;;;;;3.70;1.30;;;10.10;99.90;;;;;;4109949;28;21682;-68
2023/11/08 01:31:03;;;;;;;4.65;1.67;;;10.10;99.90;;;;;;4149147;28;20292;-68
2023/11/08 01:33:04;;;;;;;4.22;1.67;;;10.00;99.90;;;;;;4161447;28;20124;-67
2023/11/08 01:35:05;;;;;;;4.65;1.70;;;10.00;99.90;;;;;;4143149;28;20042;-68
2023/11/08 01:37:06;;;;;;;2.85;1.42;;;10.00;99.90;;;;;;4159945;28;20726;-68
2023/11/08 01:39:07;;;;;;;3.17;1.40;;;10.00;99.90;;;;;;4156306;28;20040;-68
2023/11/08 01:41:07;;;;;;;3.53;1.42;;;10.00;99.90;;;;;;4144444;28;20125;-68
2023/11/08 01:43:08;;;;;;;5.00;1.63;;;10.00;99.90;;;;;;4149912;28;20037;-68
2023/11/08 01:45:09;;;;;;;4.90;1.50;;;10.00;99.90;;;;;;4147484;28;20117;-68
2023/11/08 01:47:10;;;;;;;4.57;1.65;;;10.00;99.90;;;;;;4161166;28;20503;-68
2023/11/08 01:49:12;;;;;;;3.13;1.30;;;10.00;99.90;;;;;;4157583;28;20038;-68
2023/11/08 01:51:13;;;;;;;6.20;1.33;;;10.00;99.90;;;;;;4160215;28;20041;-68
2023/11/08 01:53:13;;;;;;;5.10;1.92;;;10.00;99.90;;;;;;4161147;28;20516;-67
2023/11/08 01:55:14;;;;;;;4.15;1.25;;;10.00;99.90;;;;;;4153041;28;20038;-69
2023/11/08 01:57:15;;;;;;;3.15;1.17;;;10.00;99.90;;;;;;4156477;28;20049;-67
2023/11/08 01:59:17;;;;;;;5.75;1.42;;;10.00;99.90;;;;;;4146962;28;20056;-67
2023/11/08 02:01:19;;;;;;;3.47;1.20;;;10.00;99.90;;;;;;4149458;28;20054;-68
2023/11/08 02:03:20;;;;;;;5.63;1.85;;;10.00;99.90;;;;;;4135511;28;20098;-67
2023/11/08 02:05:22;;;;;;;3.50;1.38;;;10.00;99.90;;;;;;4144843;28;20022;-68
2023/11/08 02:07:23;;;;;;;3.70;1.50;;;10.00;99.90;;;;;;4144867;28;20088;-67
2023/11/08 02:09:24;;;;;;;7.15;1.48;;;10.00;99.90;;;;;;4144228;28;20050;-67
2023/11/08 02:11:25;;;;;;;5.55;1.63;;;10.00;99.90;;;;;;4145679;28;20042;-67
2023/11/08 02:13:29;;;;;;;4.72;1.15;;;10.00;99.90;;;;;;4146511;28;20117;-67
2023/11/08 02:15:42;;;;;;;6.20;1.63;;;10.00;99.90;;;;;;4145397;28;20035;-68
2023/11/08 02:17:44;;;;;;;3.97;1.27;;;10.10;99.90;;;;;;4150419;28;20033;-67
2023/11/08 02:19:44;;;;;;;3.45;1.52;;;10.00;99.90;;;;;;4151789;28;20046;-67
2023/11/08 02:21:45;;;;;;;2.72;1.45;;;10.00;99.90;;;;;;4152824;28;20092;-68
2023/11/08 02:23:46;;;;;;;6.97;1.60;;;10.00;99.90;;;;;;4144481;28;20065;-68
2023/11/08 02:25:47;;;;;;;3.97;1.17;;;10.00;99.90;;;;;;4149420;28;20380;-67
2023/11/08 02:27:47;;;;;;;2.88;1.10;;;10.00;99.90;;;;;;4117750;28;20039;-67
2023/11/08 02:29:48;;;;;;;3.92;1.40;;;10.00;99.90;;;;;;4138745;28;20047;-67
2023/11/08 02:31:50;;;;;;;2.15;1.02;;;10.00;99.90;;;;;;4139073;28;20072;-67
2023/11/08 02:33:51;;;;;;;3.60;1.40;;;10.00;99.90;;;;;;4125788;28;20150;-67
2023/11/08 02:35:52;;;;;;;3.55;1.23;;;10.00;99.90;;;;;;4132116;28;20038;-68
2023/11/08 02:37:53;;;;;;;3.45;1.10;;;10.00;99.90;;;;;;4137266;28;20054;-78
2023/11/08 02:39:53;;;;;;;4.90;1.30;;;10.00;99.90;;;;;;4132354;28;20114;-78
2023/11/08 02:41:54;;;;;;;4.85;1.20;;;10.00;99.90;;;;;;4126655;28;20041;-78
2023/11/08 02:43:55;;;;;;;6.78;1.58;;;10.00;99.90;;;;;;4141886;28;20390;-77
2023/11/08 02:45:56;;;;;;;3.53;1.27;;;10.00;99.90;;;;;;4132430;28;20058;-77
2023/11/08 02:47:56;;;;;;;3.60;1.25;;;10.00;99.90;;;;;;4110327;28;20047;-78
2023/11/08 02:49:58;;;;;;;4.50;1.35;;;10.00;99.90;;;;;;4128876;28;20034;-78
2023/11/08 02:51:59;;;;;;;10.10;1.70;;;10.00;99.90;;;;;;4137013;28;20033;-74
2023/11/08 02:54:00;;;;;;;2.50;0.75;;;10.00;99.90;;;;;;4142230;28;20068;-76
2023/11/08 02:56:00;;;;;;;5.07;1.48;;;10.10;99.90;;;;;;4131378;28;20034;-76
2023/11/08 02:58:01;;;;;;;3.15;1.27;;;10.10;99.90;;;;;;4134024;28;20042;-77
2023/11/08 03:00:03;;;;;;;6.20;1.20;;;10.10;99.90;;;;;;4130184;28;20034;-78
2023/11/08 03:02:05;;;;;;;4.20;1.27;;;10.10;99.90;;;;;;4127724;28;20062;-77
2023/11/08 03:04:07;;;;;;;2.65;1.25;;;10.00;99.90;;;;;;4113620;28;20819;-77
2023/11/08 03:06:08;;;;;;;3.65;1.10;;;10.10;99.90;;;;;;4131733;28;20039;-77
2023/11/08 03:08:09;;;;;;;3.20;1.00;;;10.00;99.90;;;;;;4138779;28;20046;-78
2023/11/08 03:10:10;;;;;;;3.00;1.27;;;10.00;99.90;;;;;;4125724;28;20498;-78
2023/11/08 03:12:10;;;;;;;1.90;0.98;;;10.00;99.90;;;;;;4133691;28;20066;-77
2023/11/08 03:14:11;;;;;;;3.58;1.13;;;10.00;99.90;;;;;;4128793;28;20038;-77
2023/11/08 03:16:12;;;;;;;2.42;1.02;;;10.00;99.90;;;;;;4132381;28;20109;-77
2023/11/08 03:18:12;;;;;;;3.08;0.95;;;10.00;99.90;;;;;;4140468;28;20129;-77
2023/11/08 03:20:14;;;;;;;3.85;1.33;;;10.00;99.90;;;;;;4133007;28;20478;-77
2023/11/08 03:22:16;;;;;;;5.03;1.45;;;10.00;99.90;;;;;;4115325;28;20051;-77
2023/11/08 03:24:18;;;;;;;5.10;1.27;;;10.00;99.90;;;;;;4127656;28;20492;-78
2023/11/08 03:26:19;;;;;;;4.18;1.30;;;10.00;99.90;;;;;;4108612;28;20069;-77
2023/11/08 03:28:19;;;;;;;4.57;1.35;;;10.00;99.90;;;;;;4134830;28;20038;-77
2023/11/08 03:30:20;;;;;;;3.80;1.25;;;10.00;99.90;;;;;;4124905;28;20257;-78
2023/11/08 03:32:22;;;;;;;4.32;1.00;;;10.10;99.90;;;;;;4111454;28;20113;-77
2023/11/08 03:34:23;;;;;;;3.90;1.13;;;10.10;99.90;;;;;;4110348;28;20031;-78
2023/11/08 03:36:25;;;;;;;2.50;0.90;;;10.10;99.90;;;;;;4131637;28;20034;-77
2023/11/08 03:38:25;;;;;;;2.60;0.80;;;10.10;99.90;;;;;;4133904;28;20038;-77
2023/11/08 03:40:27;;;;;;;4.30;1.27;;;10.10;99.90;;;;;;4127499;28;20042;-78
2023/11/08 03:42:28;;;;;;;3.13;1.05;;;10.10;99.90;;;;;;4113029;28;20031;-77
2023/11/08 03:44:28;;;;;;;3.13;1.10;;;10.00;99.90;;;;;;4130613;28;20443;-74
2023/11/08 03:46:29;;;;;;;1.55;1.02;;;10.00;99.90;;;;;;4130341;28;20113;-77
2023/11/08 03:48:31;;;;;;;2.47;1.08;;;10.10;99.90;;;;;;4113240;28;20042;-77
2023/11/08 03:50:32;;;;;;;3.17;1.20;;;10.10;99.90;;;;;;4129914;28;20065;-77
2023/11/08 03:52:33;;;;;;;2.95;0.88;;;10.00;99.90;;;;;;4132084;28;20046;-76
2023/11/08 03:54:33;;;;;;;2.75;1.30;;;10.10;99.90;;;;;;4135450;28;20034;-77
2023/11/08 03:56:34;;;;;;;1.95;0.88;;;10.10;99.90;;;;;;4135928;28;20113;-77
2023/11/08 03:58:34;;;;;;;1.48;0.80;;;10.10;99.90;;;;;;4130790;28;20034;-76
2023/11/08 04:00:36;;;;;;;3.78;1.20;;;10.10;99.90;;;;;;4127993;28;20110;-76
2023/11/08 04:02:37;;;;;;;4.93;1.27;;;10.00;99.90;;;;;;4134963;28;20437;-77
2023/11/08 04:04:38;;;;;;;2.90;0.95;;;10.00;99.90;;;;;;4135976;28;20273;-76
2023/11/08 04:06:38;;;;;;;2.60;0.98;;;10.00;99.90;;;;;;4140434;28;20039;-77
2023/11/08 04:08:39;;;;;;;2.45;1.25;;;10.00;99.90;;;;;;4134106;28;20038;-78
2023/11/08 04:10:40;;;;;;;2.13;0.80;;;9.90;99.90;;;;;;4129527;28;20070;-77
2023/11/08 04:12:40;;;;;;;5.35;1.10;;;10.00;99.90;;;;;;4135375;28;20030;-77
2023/11/08 04:14:41;;;;;;;3.30;0.90;;;10.00;99.90;;;;;;4137057;28;20441;-77
2023/11/08 04:16:41;;;;;;;3.28;1.20;;;9.90;99.90;;;;;;4135537;28;20172;-77
2023/11/08 04:18:43;;;;;;;2.70;1.05;;;9.90;99.90;;;;;;4127476;28;20030;-77
2023/11/08 04:20:44;;;;;;;4.03;1.10;;;9.90;99.90;;;;;;4136813;28;20042;-77
2023/11/08 04:22:44;;;;;;;3.20;1.13;;;9.90;99.90;;;;;;4138908;28;20040;-78
2023/11/08 04:24:45;;;;;;;2.97;0.90;;;9.80;99.90;;;;;;4146414;28;20045;-77
2023/11/08 04:26:46;;;;;;;2.40;1.23;;;9.80;99.90;;;;;;4128772;28;20053;-77
2023/11/08 04:28:46;;;;;;;3.67;1.13;;;9.80;99.90;;;;;;4129192;28;20050;-77
2023/11/08 04:30:47;;;;;;;3.05;0.95;;;9.80;99.90;;;;;;4128515;28;20870;-77
2023/11/08 04:32:48;;;;;;;1.52;0.80;;;9.80;99.90;;;;;;4129355;28;20035;-77
2023/11/08 04:34:49;;;;;;;2.38;1.20;;;9.80;99.90;;;;;;4130830;28;20035;-76
2023/11/08 04:36:49;;;;;;;2.85;1.42;;;9.80;99.90;;;;;;4132175;28;20113;-77
2023/11/08 04:38:51;;;;;;;3.33;1.33;;;9.70;99.90;;;;;;4129585;28;20041;-78
2023/11/08 04:40:52;;;;;;;5.45;1.35;;;9.70;99.90;;;;;;4138171;28;20479;-78
2023/11/08 04:42:53;;;;;;;1.98;0.77;;;9.70;99.90;;;;;;4129466;28;20038;-77
2023/11/08 04:44:54;;;;;;;4.40;1.27;;;9.70;99.90;;;;;;4116138;28;20144;-77
2023/11/08 04:46:55;;;;;;;5.13;1.60;;;9.70;99.90;;;;;;4138731;28;20052;-78
2023/11/08 04:48:55;;;;;;;4.53;1.48;;;9.70;99.90;;;;;;4128626;28;20182;-77
2023/11/08 04:50:56;;;;;;;4.63;1.20;;;9.70;99.90;;;;;;4134591;28;20070;-77
2023/11/08 04:52:57;;;;;;;3.67;0.98;;;9.60;99.90;;;;;;4139671;28;20042;-78
2023/11/08 04:54:57;;;;;;;3.72;1.10;;;9.60;99.90;;;;;;4138934;28;20034;-77
2023/11/08 04:56:58;;;;;;;3.75;1.63;;;9.60;99.90;;;;;;4111121;28;20528;-77
2023/11/08 04:58:59;;;;;;;4.18;0.93;;;9.60;99.90;;;;;;4132364;28;20486;-77
2023/11/08 05:00:59;;;;;;;3.92;1.10;;;9.60;99.90;;;;;;4128333;28;20079;-72
2023/11/08 05:03:00;;;;;;;3.28;1.15;;;9.50;99.90;;;;;;4128588;28;20053;-76
2023/11/08 05:05:01;;;;;;;3.60;1.15;;;9.60;99.90;;;;;;4129232;28;20054;-76
2023/11/08 05:07:01;;;;;;;5.28;1.80;;;9.50;99.90;;;;;;4119105;28;20507;-76
2023/11/08 05:09:02;;;;;;;2.80;1.05;;;9.50;99.90;;;;;;4127985;28;20044;-76
2023/11/08 05:11:03;;;;;;;3.55;1.00;;;9.50;99.90;;;;;;4138000;28;20042;-76
2023/11/08 05:13:04;;;;;;;3.47;1.20;;;9.50;99.90;;;;;;4134375;28;20787;-77
2023/11/08 05:15:08;;;;;;;3.30;1.23;;;9.50;99.90;;;;;;4130695;28;20054;-78
2023/11/08 05:17:09;;;;;;;3.63;1.08;;;9.40;99.90;;;;;;4120489;28;20177;-77
2023/11/08 05:19:10;;;;;;;5.38;1.48;;;9.40;99.90;;;;;;4128390;28;20046;-77
2023/11/08 05:21:12;;;;;;;2.33;1.30;;;9.40;99.90;;;;;;4130477;28;20097;-77
2023/11/08 05:23:12;;;;;;;2.20;1.08;;;9.40;99.90;;;;;;4130091;28;20034;-77
2023/11/08 05:25:14;;;;;;;2.95;0.93;;;9.40;99.90;;;;;;4114597;28;20031;-76
2023/11/08 05:27:17;;;;;;;6.07;1.45;;;9.40;99.90;;;;;;4128356;28;20053;-76
2023/11/08 05:29:20;;;;;;;5.43;1.30;;;9.40;99.90;;;;;;4130847;28;20073;-76
2023/11/08 05:31:23;;;;;;;3.70;1.40;;;9.40;99.90;;;;;;4120557;28;20062;-76
2023/11/08 05:33:23;;;;;;;4.75;1.60;;;9.30;99.90;;;;;;4127853;28;20062;-77
2023/11/08 05:35:25;;;;;;;10.93;1.30;;;9.30;99.90;;;;;;4128415;28;20040;-77
2023/11/08 05:37:25;;;;;;;4.68;1.30;;;9.30;99.90;;;;;;4127513;28;20054;-77
2023/11/08 05:39:27;;;;;;;4.38;1.17;;;9.30;99.90;;;;;;4125948;28;20441;-76
2023/11/08 05:41:28;;;;;;;4.57;1.30;;;9.30;99.90;;;;;;4124976;28;20472;-77
2023/11/08 05:43:29;;;;;;;5.38;1.75;;;9.30;99.90;;;;;;4128240;28;20055;-74
2023/11/08 05:45:29;;;;;;;3.20;1.02;;;9.30;99.90;;;;;;4130631;28;20041;-72
2023/11/08 05:47:30;;;;;;;6.43;1.73;;;9.20;99.90;;;;;;4142510;28;20034;-73
2023/11/08 05:49:31;;;;;;;3.97;1.40;;;9.20;99.90;;;;;;4126753;28;20072;-76
2023/11/08 05:51:32;;;;;;;4.20;1.30;;;9.30;99.90;;;;;;4120998;28;20496;-76
2023/11/08 05:53:33;;;;;;;4.72;1.55;;;9.30;99.90;;;;;;4104615;28;20428;-76
2023/11/08 05:55:34;;;;;;;4.72;1.27;;;9.30;99.90;;;;;;4128190;28;20037;-79
2023/11/08 05:57:35;;;;;;;10.30;1.67;;;9.20;99.90;;;;;;4110792;28;20038;-77
2023/11/08 05:59:35;;;;;;;3.63;1.33;;;9.20;99.90;;;;;;4127833;28;20438;-78
2023/11/08 06:01:36;;;;;;;5.85;1.67;;;9.20;99.90;;;;;;4129953;28;20129;-77
2023/11/08 06:03:36;;;;;;;3.15;1.20;;;9.20;99.90;;;;;;4127797;28;20447;-77
2023/11/08 06:05:37;;;;;;;5.07;1.55;;;9.20;99.90;;;;;;4127545;28;20034;-77
2023/11/08 06:07:40;;;;;;;3.47;1.35;;;9.20;99.90;;;;;;4129185;28;20038;-67
2023/11/08 06:09:43;;;;;;;3.50;1.40;;;9.20;99.90;;;;;;4115171;28;20035;-68
2023/11/08 06:11:43;;;;;;;6.85;2.00;;;9.20;99.90;;;;;;4101711;28;20059;-67
2023/11/08 06:13:44;;;;;;;3.67;1.70;;;9.30;99.90;;;;;;4128090;28;20057;-67
2023/11/08 06:15:45;;;;;;;5.82;1.52;;;9.20;99.90;;;;;;4111548;28;20031;-67
2023/11/08 06:17:45;;;;;;;6.47;1.83;;;9.20;99.90;;;;;;4128092;28;20045;-67
2023/11/08 06:19:47;;;;;;;9.60;1.38;;;9.20;99.90;;;;;;4126681;28;20089;-67
2023/11/08 06:21:48;;;;;;;4.25;1.45;;;9.20;99.90;;;;;;4133397;28;20047;-66
2023/11/08 06:23:49;;;;;;;2.75;1.40;;;9.20;99.90;;;;;;4113948;28;20434;-67
2023/11/08 06:25:50;;;;;;;2.53;1.35;;;9.20;99.90;;;;;;4137875;28;20125;-67
2023/11/08 06:27:50;;;;;;;11.27;1.83;;;9.20;99.90;;;;;;4133825;28;20505;-66
2023/11/08 06:29:51;;;;;;;7.35;2.15;;;9.20;99.90;;;;;;4127680;28;20066;-66
2023/11/08 06:31:51;;;;;;;4.97;1.20;;;9.20;99.90;;;;;;4122087;28;20042;-66
2023/11/08 06:33:52;;;;;;;2.78;1.42;;;9.20;99.90;;;;;;4126658;28;20038;-67
2023/11/08 06:35:52;;;;;;;6.22;1.58;;;9.20;99.90;;;;;;4128006;28;20081;-67
2023/11/08 06:37:53;;;;;;;4.35;1.33;;;9.20;99.90;;;;;;4127693;28;20045;-66
2023/11/08 06:39:55;;;;;;;3.83;1.35;;;9.20;99.90;;;;;;4109162;28;20065;-66
2023/11/08 06:41:56;;;;;;;3.00;1.07;;;9.20;99.90;;;;;;4126086;28;20039;-66
2023/11/08 06:43:57;;;;;;;1.90;1.10;;;9.20;99.90;;;;;;4127496;28;20053;-67
2023/11/08 06:45:58;;;;;;;4.03;1.70;;;9.30;99.90;;;;;;4108355;28;20051;-66
2023/11/08 06:47:59;;;;;;;4.45;1.77;;;9.20;99.90;;;;;;4122616;28;20121;-66
2023/11/08 06:49:59;;;;;;;2.92;1.35;;;9.20;99.90;;;;;;4126813;28;20038;-66
2023/11/08 06:52:00;;;;;;;7.55;2.03;;;9.30;99.90;;;;;;4123902;28;20403;-66
2023/11/08 06:54:00;;;;;;;4.13;1.65;;;9.30;99.90;;;;;;4126839;28;20031;-66
2023/11/08 06:56:01;;;;;;;5.57;1.20;;;9.30;99.90;;;;;;4125183;28;20127;-67
2023/11/08 06:58:02;;;;;;;5.95;1.40;;;9.30;99.90;;;;;;4127067;28;20537;-67
2023/11/08 07:00:03;;;;;;;6.47;1.85;;;9.30;99.90;;;;;;4124216;28;20475;-67
2023/11/08 07:02:04;;;;;;;3.83;1.10;;;9.30;99.90;;;;;;4126805;28;20050;-66
2023/11/08 07:04:05;;;;;;;2.88;1.30;;;9.30;99.90;;;;;;4125299;28;20416;-67
2023/11/08 07:06:05;;;;;;;3.95;1.50;;;9.30;99.90;;;;;;4124552;28;20038;-66
2023/11/08 07:08:07;;;;;;;4.15;1.50;;;9.30;99.90;;;;;;4125758;28;20034;-67
2023/11/08 07:10:11;;;;;;;6.55;1.50;;;9.40;99.90;;;;;;4106736;28;20043;-67
2023/11/08 07:12:11;;;;;;;4.97;1.90;;;9.40;99.90;;;;;;4109325;28;20551;-66
2023/11/08 07:14:12;;;;;;;9.15;2.13;;;9.40;99.90;;;;;;4125464;28;20042;-66
2023/11/08 07:16:14;;;;;;;6.38;1.88;;;9.40;99.90;;;;;;4122256;28;20534;-66
2023/11/08 07:18:14;;;;;;;4.22;1.55;;;9.50;99.90;;;;;;4124583;28;20121;-67
2023/11/08 07:20:15;;;;;;;3.05;1.23;;;9.40;99.90;;;;;;4119567;28;20034;-67
2023/11/08 07:22:16;;;;;;;3.83;1.42;;;9.50;99.90;;;;;;4125503;28;20348;-66
2023/11/08 07:24:16;;;;;;;4.28;1.55;;;9.50;99.90;;;;;;4125077;28;20080;-66
2023/11/08 07:26:17;;;;;;;5.10;1.40;;;9.60;99.90;;;;;;4123837;28;20037;-76
2023/11/08 07:28:18;;;;;;;3.22;1.42;;;9.60;99.90;;;;;;4127241;28;20129;-77
2023/11/08 07:30:19;;;;;;;7.45;1.25;;;9.60;99.90;;;;;;4132382;28;20125;-77
2023/11/08 07:32:20;;;;;;;5.50;1.83;;;9.70;99.90;;;;;;4134419;28;20445;-76
2023/11/08 07:34:24;;;;;;;4.97;1.55;;;9.70;99.90;;;;;;4145287;28;20041;-73
2023/11/08 07:36:25;;;;;;;5.43;1.88;;;9.80;99.90;;;;;;4140611;28;20037;-71
2023/11/08 07:38:25;;;;;;;4.63;1.75;;;9.80;99.90;;;;;;4143708;28;20053;-71
2023/11/08 07:40:27;;;;;;;8.15;1.92;;;9.80;99.90;;;;;;4144672;28;20516;-71
2023/11/08 07:42:27;;;;;;;9.20;2.03;;;9.80;99.90;;;;;;4139813;28;20048;-70
2023/11/08 07:44:30;;;;;;;5.18;1.67;;;9.80;99.90;;;;;;4143436;28;20386;-70
2023/11/08 07:46:31;;;;;;;5.07;1.92;;;9.90;99.90;;;;;;4139390;28;20034;-70
2023/11/08 07:48:31;;;;;;;4.78;1.45;;;9.90;99.90;;;;;;4144195;28;20475;-71
2023/11/08 07:50:33;;;;;;;5.50;1.80;;;9.90;99.90;;;;;;4140480;28;20042;-72
2023/11/08 07:52:33;;;;;;;5.07;1.42;;;9.90;99.90;;;;;;4143158;28;20061;-71
2023/11/08 07:54:35;;;;;;;7.63;1.73;;;10.00;99.90;;;;;;4143617;28;20034;-71
2023/11/08 07:56:35;;;;;;;7.13;2.17;;;10.00;99.90;;;;;;4143640;28;20030;-72
2023/11/08 07:58:36;;;;;;;6.50;1.50;;;9.90;99.90;;;;;;4142902;28;20053;-72
2023/11/08 08:00:37;;;;;;;4.88;2.00;;;10.00;99.90;;;;;;4140811;28;20092;-71
2023/11/08 08:02:37;;;;;;;5.90;1.98;;;10.00;99.90;;;;;;4124794;28;20038;-71
2023/11/08 08:04:38;;;;;;;6.10;1.95;;;10.00;99.90;;;;;;4143987;28;20108;-72
2023/11/08 08:06:40;;;;;;;5.47;1.80;;;10.10;99.90;;;;;;4140213;28;20079;-71
2023/11/08 08:08:41;;;;;;;4.53;1.77;;;10.10;99.90;;;;;;4141912;28;20034;-72
2023/11/08 08:10:44;;;;;;;6.15;1.80;;;10.10;99.90;;;;;;4140724;28;20034;-72
2023/11/08 08:12:45;;;;;;;5.07;1.77;;;10.10;99.90;;;;;;4141699;28;20037;-72
2023/11/08 08:14:46;;;;;;;7.47;2.10;;;10.20;99.90;;;;;;4143931;28;20041;-72
2023/11/08 08:16:46;;;;;;;9.27;2.10;;;10.50;99.90;;;;;;4141971;28;20054;-72
2023/11/08 08:18:47;;;;;;;7.82;2.25;;;10.90;99.90;;;;;;4141427;28;20395;-72
2023/11/08 08:20:49;;;;;;;8.48;2.20;;;11.20;99.90;;;;;;4141935;28;20137;-72
2023/11/08 08:22:51;;;;;;;4.00;1.87;;;11.50;99.90;;;;;;4138369;28;21039;-72
2023/11/08 08:24:51;;;;;;;6.10;1.92;;;11.80;99.90;;;;;;4144922;28;20109;-72
2023/11/08 08:26:52;;;;;;;5.45;1.90;;;12.10;99.90;;;;;;4143750;28;20475;-72
2023/11/08 08:28:53;;;;;;;6.90;1.90;;;12.40;99.90;;;;;;4146612;28;20034;-72
2023/11/08 08:30:53;;;;;;;3.88;1.52;;;12.70;99.90;;;;;;4147919;28;20431;-72
2023/11/08 08:32:54;;;;;;;5.65;1.67;;;12.80;99.90;;;;;;4146232;28;20061;-72
2023/11/08 08:34:54;;;;;;;4.20;1.65;;;13.00;99.90;;;;;;4148176;28;20037;-71
2023/11/08 08:36:56;;;;;;;6.75;2.03;;;13.10;99.90;;;;;;4145138;28;20073;-72
2023/11/08 08:38:57;;;;;;;8.63;1.60;;;13.30;99.90;;;;;;4146180;28;20474;-72
2023/11/08 08:40:58;;;;;;;4.95;1.63;;;13.50;99.90;;;;;;4145833;28;20034;-72
2023/11/08 08:42:58;;;;;;;4.93;1.60;;;13.60;99.90;;;;;;4145590;28;20038;-72
2023/11/08 08:44:59;;;;;;;6.25;1.63;;;13.60;99.90;;;;;;4146060;28;20065;-72
2023/11/08 08:47:00;;;;;;;4.90;1.52;;;13.70;99.90;;;;;;4144242;28;20038;-72
2023/11/08 08:49:00;;;;;;;6.65;1.60;;;13.90;99.90;;;;;;4143234;28;20069;-72
2023/11/08 08:51:02;;;;;;;4.28;1.30;;;13.70;99.90;;;;;;4137638;28;20038;-72
2023/11/08 08:53:03;;;;;;;7.18;1.67;;;13.50;99.90;;;;;;4136711;28;20442;-72
2023/11/08 08:55:04;;;;;;;7.07;1.85;;;13.40;99.90;;;;;;4147358;28;20041;-72
2023/11/08 08:57:05;;;;;;;5.53;1.40;;;13.20;99.90;;;;;;4141913;28;20049;-71
2023/11/08 08:59:05;;;;;;;2.97;1.33;;;13.10;99.90;;;;;;4143373;28;20442;-72
2023/11/08 09:01:11;;;;;;;3.75;1.55;;;13.00;99.90;;;;;;4143878;28;20518;-71
2023/11/08 09:03:11;;;;;;;5.25;1.42;;;12.80;99.90;;;;;;4144821;28;20030;-72
2023/11/08 09:05:12;;;;;;;3.15;1.30;;;12.70;99.90;;;;;;4147004;28;20493;-72
2023/11/08 09:07:12;;;;;;;3.63;1.50;;;12.70;99.90;;;;;;4145705;28;20379;-72
2023/11/08 09:09:14;;;;;;;5.72;2.13;;;12.60;99.90;;;;;;4144325;28;20104;-71
2023/11/08 09:11:15;;;;;;;7.53;1.90;;;12.60;99.90;;;;;;4143862;28;20046;-72
2023/11/08 09:13:16;;;;;;;4.40;1.25;;;12.50;99.90;;;;;;4145283;28;20095;-72
2023/11/08 09:15:17;;;;;;;7.90;1.80;;;12.40;99.90;;;;;;4142613;28;20037;-72
2023/11/08 09:17:20;;;;;;;6.35;1.63;;;12.50;99.90;;;;;;4146433;28;20041;-72
2023/11/08 09:19:20;;;;;;;7.00;1.73;;;12.50;99.90;;;;;;4143176;28;20517;-72
2023/11/08 09:21:23;;;;;;;3.65;1.33;;;12.50;99.90;;;;;;4145219;28;20033;-72
2023/11/08 09:23:23;;;;;;;;;;;12.60;99.90;;;;;;4146127;28;20042;-71
2023/11/08 09:25:24;;;;;;;5.35;1.55;;;12.60;99.90;;;;;;4145442;28;19921;-72
2023/11/08 09:27:25;;;;;;;7.93;1.73;;;12.60;99.90;;;;;;4144928;28;20037;-71
2023/11/08 09:29:26;;;;;;;6.53;1.73;;;12.60;99.90;;;;;;4143446;28;20495;-72
2023/11/08 09:31:26;;;;;;;6.97;1.75;;;12.60;99.90;;;;;;4127275;28;20034;-72
2023/11/08 09:33:27;;;;;;;6.50;1.58;;;12.50;99.90;;;;;;4128535;28;20411;-71
2023/11/08 09:35:28;;;;;;;3.55;1.38;;;12.50;99.90;;;;;;4128854;28;20026;-71
2023/11/08 09:37:28;;;;;;;4.88;1.73;;;12.40;99.90;;;;;;4128553;28;20365;-71
2023/11/08 09:39:30;;;;;;;5.95;1.95;;;12.40;99.90;;;;;;4131052;28;20501;-71
2023/11/08 09:41:31;;;;;;;10.02;2.17;;;12.40;99.90;;;;;;4130120;28;20041;-71
2023/11/08 09:43:34;;;;;;;4.85;1.63;;;12.30;99.90;;;;;;4110410;28;20055;-71
2023/11/08 09:45:36;;;;;;;5.38;1.63;;;12.20;99.90;;;;;;4127377;28;20109;-71
2023/11/08 09:47:38;;;;;;;4.25;1.20;;;12.30;99.90;;;;;;4129107;28;20049;-71
2023/11/08 09:49:40;;;;;;;4.65;1.30;;;12.20;99.90;;;;;;4127786;28;20169;-71
2023/11/08 09:51:41;;;;;;;5.22;1.83;;;12.20;99.90;;;;;;4140494;28;20084;-71
2023/11/08 09:53:49;;;;;;;4.22;1.45;;;12.20;99.90;;;;;;4135594;28;20034;-71
2023/11/08 09:55:55;;;;;;;7.05;1.85;;;12.20;99.90;;;;;;4127573;28;20125;-70
2023/11/08 09:57:58;;;;;;;4.68;1.38;;;12.20;99.90;;;;;;4110886;28;20038;-70
2023/11/08 09:59:59;;;;;;;7.18;1.83;;;12.10;99.90;;;;;;4110116;28;20043;-70
2023/11/08 10:02:06;;;;;;;4.80;1.48;;;12.10;99.90;;;;;;4127397;28;20034;-71
2023/11/08 10:04:10;;;;;;;4.85;1.60;;;12.10;99.90;;;;;;4126517;28;20046;-72
2023/11/08 10:06:11;;;;;;;5.22;1.95;;;12.10;99.90;;;;;;4128641;28;20113;-70
2023/11/08 10:08:12;;;;;;;6.78;1.70;;;12.10;99.90;;;;;;4128397;28;20088;-72
2023/11/08 10:10:14;;;;;;;8.63;1.75;;;12.00;99.90;;;;;;4126040;28;20074;-72
2023/11/08 10:12:21;;;;;;;3.05;1.20;;;12.10;99.90;;;;;;4127141;28;20042;-72
2023/11/08 10:14:32;;;;;;;4.65;1.58;;;12.00;99.90;;;;;;4126631;28;20112;-72
2023/11/08 10:16:45;;;;;;;5.20;1.65;;;12.00;99.90;;;;;;4129215;28;20125;-72
2023/11/08 10:18:56;;;;;;;10.02;2.20;;;12.00;99.90;;;;;;4128996;28;20030;-72
2023/11/08 10:21:06;;;;;;;4.88;1.35;;;11.90;99.90;;;;;;4132822;28;20487;-72
2023/11/08 10:23:07;;;;;;;6.32;1.65;;;12.00;99.90;;;;;;4130674;28;20436;-71
2023/11/08 10:25:08;;;;;;;5.15;1.20;;;12.00;99.90;;;;;;4133533;28;20068;-73
2023/11/08 10:27:11;;;;;;;6.10;1.83;;;12.00;99.90;;;;;;4129718;28;20044;-71
2023/11/08 10:29:12;;;;;;;4.18;1.70;;;12.10;99.90;;;;;;4129853;28;20058;-72
2023/11/08 10:31:33;;;;;;;5.15;1.40;;;12.20;99.90;;;;;;4136131;28;20042;-72
2023/11/08 10:33:34;;;;;;;5.13;1.55;;;12.20;99.90;;;;;;4139382;28;20343;-71